createdAt,value
2023-03-08T00:00:12.101Z,0.00
2023-03-08T00:01:10.821Z,0.00
2023-03-08T00:02:10.802Z,0.00
2023-03-08T00:03:10.780Z,0.00
2023-03-08T00:04:10.181Z,0.00
2023-03-08T00:05:10.104Z,0.00
2023-03-08T00:06:10.765Z,0.00
2023-03-08T00:07:10.062Z,0.00
2023-03-08T00:08:10.858Z,0.00
2023-03-08T00:09:10.055Z,0.00
2023-03-08T00:10:10.720Z,0.00
2023-03-08T00:11:10.039Z,0.00
2023-03-08T00:12:10.726Z,0.00
2023-03-08T00:13:10.673Z,0.00
2023-03-08T00:14:10.680Z,0.00
2023-03-08T00:15:10.665Z,0.00
2023-03-08T00:16:10.704Z,0.00
2023-03-08T00:17:10.643Z,0.00
2023-03-08T00:18:10.621Z,0.00
2023-03-08T00:19:10.628Z,0.00
2023-03-08T00:20:10.612Z,0.00
2023-03-08T00:21:10.609Z,0.00
2023-03-08T00:22:10.601Z,0.00
2023-03-08T00:23:10.573Z,0.00
2023-03-08T00:24:10.571Z,0.00
2023-03-08T00:25:10.573Z,0.00
2023-03-08T00:26:10.558Z,0.00
2023-03-08T00:27:10.541Z,0.00
2023-03-08T00:28:10.512Z,0.00
2023-03-08T00:29:10.808Z,0.00
2023-03-08T00:30:10.507Z,0.00
2023-03-08T00:31:10.537Z,0.00
2023-03-08T00:32:10.528Z,0.00
2023-03-08T00:33:10.463Z,0.00
2023-03-08T00:34:09.783Z,0.00
2023-03-08T00:35:09.760Z,0.00
2023-03-08T00:36:09.793Z,0.00
2023-03-08T00:37:10.429Z,0.00
2023-03-08T00:38:10.407Z,0.00
2023-03-08T00:39:10.414Z,0.00
2023-03-08T00:40:10.415Z,0.00
2023-03-08T00:41:10.402Z,0.00
2023-03-08T00:42:09.702Z,0.00
2023-03-08T00:43:10.361Z,0.00
2023-03-08T00:44:10.360Z,0.00
2023-03-08T00:45:10.352Z,0.00
2023-03-08T00:46:09.666Z,0.00
2023-03-08T00:47:10.331Z,0.00
2023-03-08T00:48:10.304Z,0.00
2023-03-08T00:49:09.633Z,0.00
2023-03-08T00:50:09.720Z,0.00
2023-03-08T00:51:09.605Z,0.00
2023-03-08T00:52:10.282Z,0.00
2023-03-08T00:53:10.254Z,0.00
2023-03-08T00:54:10.263Z,0.00
2023-03-08T00:55:09.570Z,0.00
2023-03-08T00:56:10.243Z,0.00
2023-03-08T00:57:09.542Z,0.00
2023-03-08T00:58:09.553Z,0.00
2023-03-08T00:59:10.206Z,0.00
2023-03-08T01:00:10.193Z,0.00
2023-03-08T01:01:10.243Z,0.00
2023-03-08T01:02:10.181Z,0.00
2023-03-08T01:03:10.146Z,0.00
2023-03-08T01:04:10.200Z,0.00
2023-03-08T01:05:11.403Z,0.00
2023-03-08T01:06:10.141Z,0.00
2023-03-08T01:07:09.426Z,0.00
2023-03-08T01:08:10.100Z,0.00
2023-03-08T01:09:09.421Z,0.00
2023-03-08T01:10:09.403Z,0.00
2023-03-08T01:11:09.385Z,0.00
2023-03-08T01:12:10.083Z,0.00
2023-03-08T01:13:10.042Z,0.00
2023-03-08T01:14:10.046Z,0.00
2023-03-08T01:15:10.042Z,0.00
2023-03-08T01:16:11.171Z,0.00
2023-03-08T01:17:10.022Z,0.00
2023-03-08T01:18:09.364Z,0.00
2023-03-08T01:19:09.995Z,0.00
2023-03-08T01:20:09.999Z,0.00
2023-03-08T01:21:09.286Z,0.00
2023-03-08T01:22:09.969Z,0.00
2023-03-08T01:23:09.287Z,0.00
2023-03-08T01:24:09.960Z,0.00
2023-03-08T01:25:09.926Z,0.00
2023-03-08T01:26:09.927Z,0.00
2023-03-08T01:27:09.922Z,0.00
2023-03-08T01:28:09.887Z,0.00
2023-03-08T01:29:09.887Z,0.00
2023-03-08T01:30:09.885Z,0.00
2023-03-08T01:31:09.205Z,0.00
2023-03-08T01:32:09.912Z,0.00
2023-03-08T01:33:09.855Z,0.00
2023-03-08T01:34:09.825Z,0.00
2023-03-08T01:35:09.148Z,0.00
2023-03-08T01:36:09.875Z,0.00
2023-03-08T01:37:09.809Z,0.00
2023-03-08T01:38:09.798Z,0.00
2023-03-08T01:39:09.777Z,0.00
2023-03-08T01:40:09.109Z,0.00
2023-03-08T01:41:09.774Z,0.00
2023-03-08T01:42:09.762Z,0.00
2023-03-08T01:43:09.754Z,0.00
2023-03-08T01:44:09.716Z,0.00
2023-03-08T01:45:09.976Z,0.00
2023-03-08T01:46:09.041Z,0.00
2023-03-08T01:47:09.709Z,0.00
2023-03-08T01:48:09.017Z,0.00
2023-03-08T01:49:09.714Z,0.00
2023-03-08T01:50:09.002Z,0.00
2023-03-08T01:51:08.976Z,0.00
2023-03-08T01:52:09.169Z,0.00
2023-03-08T01:53:09.646Z,0.00
2023-03-08T01:54:09.040Z,0.00
2023-03-08T01:55:09.869Z,0.00
2023-03-08T01:56:08.924Z,0.00
2023-03-08T01:57:08.930Z,0.00
2023-03-08T01:58:09.587Z,0.00
2023-03-08T01:59:08.936Z,0.00
2023-03-08T02:00:09.582Z,0.00
2023-03-08T02:01:09.564Z,0.00
2023-03-08T02:02:08.878Z,0.00
2023-03-08T02:03:09.547Z,0.00
2023-03-08T02:04:09.515Z,0.00
2023-03-08T02:05:10.800Z,0.00
2023-03-08T02:06:08.833Z,0.00
2023-03-08T02:07:09.508Z,0.00
2023-03-08T02:08:09.493Z,0.00
2023-03-08T02:09:09.477Z,0.00
2023-03-08T02:10:09.479Z,0.00
2023-03-08T02:11:09.473Z,0.00
2023-03-08T02:12:09.449Z,0.00
2023-03-08T02:13:09.448Z,0.00
2023-03-08T02:14:09.410Z,0.00
2023-03-08T02:15:10.699Z,0.00
2023-03-08T02:16:08.745Z,0.00
2023-03-08T02:17:09.403Z,0.00
2023-03-08T02:18:09.403Z,0.00
2023-03-08T02:19:08.727Z,0.00
2023-03-08T02:20:09.369Z,0.00
2023-03-08T02:21:08.676Z,0.00
2023-03-08T02:22:09.354Z,0.00
2023-03-08T02:23:09.346Z,0.00
2023-03-08T02:24:09.306Z,0.00
2023-03-08T02:25:09.304Z,0.00
2023-03-08T02:26:09.306Z,0.00
2023-03-08T02:27:08.615Z,0.00
2023-03-08T02:28:08.598Z,0.00
2023-03-08T02:29:09.264Z,0.00
2023-03-08T02:30:09.280Z,0.00
2023-03-08T02:31:08.604Z,0.00
2023-03-08T02:32:08.597Z,0.00
2023-03-08T02:33:09.243Z,0.00
2023-03-08T02:34:09.219Z,0.00
2023-03-08T02:35:09.240Z,0.00
2023-03-08T02:36:09.244Z,0.00
2023-03-08T02:37:09.256Z,0.00
2023-03-08T02:38:09.189Z,0.00
2023-03-08T02:39:09.166Z,0.00
2023-03-08T02:40:08.468Z,0.00
2023-03-08T02:41:09.159Z,0.00
2023-03-08T02:42:09.154Z,0.00
2023-03-08T02:43:09.141Z,0.00
2023-03-08T02:44:09.102Z,0.00
2023-03-08T02:45:10.350Z,0.00
2023-03-08T02:46:09.118Z,0.00
2023-03-08T02:47:09.100Z,0.00
2023-03-08T02:48:09.080Z,0.00
2023-03-08T02:49:10.340Z,0.00
2023-03-08T02:50:09.060Z,0.00
2023-03-08T02:51:08.369Z,0.00
2023-03-08T02:52:09.052Z,0.00
2023-03-08T02:53:09.086Z,0.00
2023-03-08T02:54:09.007Z,0.00
2023-03-08T02:55:10.269Z,0.00
2023-03-08T02:56:08.332Z,0.00
2023-03-08T02:57:08.998Z,0.00
2023-03-08T02:58:08.985Z,0.00
2023-03-08T02:59:08.981Z,0.00
2023-03-08T03:00:08.948Z,0.00
2023-03-08T03:01:08.950Z,0.00
2023-03-08T03:02:08.931Z,0.00
2023-03-08T03:03:08.268Z,0.00
2023-03-08T03:04:08.910Z,0.00
2023-03-08T03:05:10.172Z,0.00
2023-03-08T03:06:08.906Z,0.00
2023-03-08T03:07:08.198Z,0.00
2023-03-08T03:08:08.873Z,0.00
2023-03-08T03:09:08.179Z,0.00
2023-03-08T03:10:08.189Z,0.00
2023-03-08T03:11:08.853Z,0.00
2023-03-08T03:12:08.156Z,0.00
2023-03-08T03:13:08.816Z,0.00
2023-03-08T03:14:08.171Z,0.00
2023-03-08T03:15:08.136Z,0.00
2023-03-08T03:16:08.827Z,0.00
2023-03-08T03:17:08.779Z,0.00
2023-03-08T03:18:08.760Z,0.00
2023-03-08T03:19:08.746Z,0.00
2023-03-08T03:20:08.076Z,0.00
2023-03-08T03:21:08.728Z,0.00
2023-03-08T03:22:08.744Z,0.00
2023-03-08T03:23:08.018Z,0.00
2023-03-08T03:24:08.698Z,0.00
2023-03-08T03:25:08.673Z,0.00
2023-03-08T03:26:07.975Z,0.00
2023-03-08T03:27:08.673Z,0.00
2023-03-08T03:28:08.669Z,0.00
2023-03-08T03:29:08.645Z,0.00
2023-03-08T03:30:08.620Z,0.00
2023-03-08T03:31:08.712Z,0.00
2023-03-08T03:32:07.946Z,0.00
2023-03-08T03:33:08.599Z,0.00
2023-03-08T03:34:07.945Z,0.00
2023-03-08T03:35:09.847Z,0.00
2023-03-08T03:36:08.586Z,0.00
2023-03-08T03:37:08.555Z,0.00
2023-03-08T03:38:07.856Z,0.00
2023-03-08T03:39:07.858Z,0.00
2023-03-08T03:40:08.508Z,0.00
2023-03-08T03:41:08.513Z,0.00
2023-03-08T03:42:09.757Z,0.00
2023-03-08T03:43:08.485Z,0.00
2023-03-08T03:44:07.823Z,0.00
2023-03-08T03:45:09.739Z,0.00
2023-03-08T03:46:08.495Z,0.00
2023-03-08T03:47:08.449Z,0.00
2023-03-08T03:48:07.750Z,0.00
2023-03-08T03:49:08.429Z,0.00
2023-03-08T03:50:07.761Z,0.00
2023-03-08T03:51:07.721Z,0.00
2023-03-08T03:52:08.682Z,0.00
2023-03-08T03:53:08.394Z,0.00
2023-03-08T03:54:08.383Z,0.00
2023-03-08T03:55:08.644Z,0.00
2023-03-08T03:56:08.363Z,0.00
2023-03-08T03:57:08.356Z,0.00
2023-03-08T03:58:07.683Z,0.00
2023-03-08T03:59:08.331Z,0.00
2023-03-08T04:00:08.298Z,0.00
2023-03-08T04:01:07.628Z,0.00
2023-03-08T04:02:07.646Z,0.00
2023-03-08T04:03:08.439Z,0.00
2023-03-08T04:04:08.280Z,0.00
2023-03-08T04:05:09.537Z,0.00
2023-03-08T04:06:08.270Z,0.00
2023-03-08T04:07:07.568Z,0.00
2023-03-08T04:08:07.578Z,0.00
2023-03-08T04:09:08.230Z,0.00
2023-03-08T04:10:08.201Z,0.00
2023-03-08T04:11:08.200Z,0.00
2023-03-08T04:12:08.200Z,0.00
2023-03-08T04:13:08.196Z,0.00
2023-03-08T04:14:07.501Z,0.00
2023-03-08T04:15:09.443Z,0.00
2023-03-08T04:16:08.176Z,0.00
2023-03-08T04:17:08.144Z,0.00
2023-03-08T04:18:08.144Z,0.00
2023-03-08T04:19:07.432Z,0.00
2023-03-08T04:20:08.111Z,0.00
2023-03-08T04:21:07.434Z,0.00
2023-03-08T04:22:08.330Z,0.00
2023-03-08T04:23:08.080Z,0.00
2023-03-08T04:24:07.394Z,0.00
2023-03-08T04:25:09.341Z,0.00
2023-03-08T04:26:07.370Z,0.00
2023-03-08T04:27:09.304Z,0.00
2023-03-08T04:28:07.332Z,0.00
2023-03-08T04:29:07.342Z,0.00
2023-03-08T04:30:07.994Z,0.00
2023-03-08T04:31:08.046Z,0.00
2023-03-08T04:32:08.107Z,0.00
2023-03-08T04:33:07.978Z,0.00
2023-03-08T04:34:07.290Z,0.00
2023-03-08T04:35:07.941Z,0.00
2023-03-08T04:36:07.979Z,0.00
2023-03-08T04:37:07.938Z,0.00
2023-03-08T04:38:07.925Z,0.00
2023-03-08T04:39:07.917Z,0.00
2023-03-08T04:40:07.882Z,0.00
2023-03-08T04:41:07.888Z,0.00
2023-03-08T04:42:07.872Z,0.00
2023-03-08T04:43:07.254Z,0.00
2023-03-08T04:44:07.852Z,0.00
2023-03-08T04:45:07.181Z,0.00
2023-03-08T04:46:08.124Z,0.00
2023-03-08T04:47:08.092Z,0.00
2023-03-08T04:48:08.063Z,0.00
2023-03-08T04:49:07.804Z,0.00
2023-03-08T04:50:07.780Z,0.00
2023-03-08T04:51:08.043Z,0.00
2023-03-08T04:52:07.809Z,0.00
2023-03-08T04:53:09.007Z,0.00
2023-03-08T04:54:07.052Z,0.00
2023-03-08T04:55:07.067Z,0.00
2023-03-08T04:56:07.725Z,0.00
2023-03-08T04:57:07.721Z,0.00
2023-03-08T04:58:07.704Z,0.00
2023-03-08T04:59:07.023Z,0.00
2023-03-08T05:00:07.681Z,0.00
2023-03-08T05:01:06.996Z,0.00
2023-03-08T05:02:07.078Z,0.00
2023-03-08T05:03:07.669Z,0.00
2023-03-08T05:04:07.652Z,0.00
2023-03-08T05:05:07.659Z,0.00
2023-03-08T05:06:07.624Z,0.00
2023-03-08T05:07:06.945Z,0.00
2023-03-08T05:08:07.607Z,0.00
2023-03-08T05:09:07.594Z,0.00
2023-03-08T05:10:07.568Z,0.00
2023-03-08T05:11:07.573Z,0.00
2023-03-08T05:12:07.566Z,0.00
2023-03-08T05:13:07.557Z,0.00
2023-03-08T05:14:07.545Z,0.00
2023-03-08T05:15:07.516Z,0.00
2023-03-08T05:16:07.578Z,0.00
2023-03-08T05:17:07.522Z,0.00
2023-03-08T05:18:07.496Z,0.00
2023-03-08T05:19:07.495Z,0.00
2023-03-08T05:20:06.818Z,0.00
2023-03-08T05:21:07.736Z,0.00
2023-03-08T05:22:07.494Z,0.00
2023-03-08T05:23:07.452Z,0.00
2023-03-08T05:24:07.440Z,0.00
2023-03-08T05:25:06.759Z,0.00
2023-03-08T05:26:07.411Z,0.00
2023-03-08T05:27:07.408Z,0.00
2023-03-08T05:28:07.396Z,0.00
2023-03-08T05:29:07.392Z,0.00
2023-03-08T05:30:06.688Z,0.00
2023-03-08T05:31:06.692Z,0.00
2023-03-08T05:32:07.398Z,0.00
2023-03-08T05:33:06.677Z,0.00
2023-03-08T05:34:07.336Z,0.00
2023-03-08T05:35:07.324Z,0.00
2023-03-08T05:36:06.688Z,0.00
2023-03-08T05:37:07.302Z,0.00
2023-03-08T05:38:07.296Z,0.00
2023-03-08T05:39:07.282Z,0.00
2023-03-08T05:40:07.266Z,0.00
2023-03-08T05:41:07.259Z,0.00
2023-03-08T05:42:07.253Z,0.00
2023-03-08T05:43:07.249Z,0.00
2023-03-08T05:44:06.548Z,0.00
2023-03-08T05:45:07.280Z,0.00
2023-03-08T05:46:07.271Z,0.00
2023-03-08T05:47:07.206Z,0.00
2023-03-08T05:48:07.198Z,0.00
2023-03-08T05:49:07.178Z,0.00
2023-03-08T05:50:07.169Z,0.00
2023-03-08T05:51:06.528Z,0.00
2023-03-08T05:52:07.147Z,0.00
2023-03-08T05:53:06.449Z,0.00
2023-03-08T05:54:06.445Z,0.00
2023-03-08T05:55:07.120Z,0.00
2023-03-08T05:56:07.086Z,0.00
2023-03-08T05:57:06.433Z,0.00
2023-03-08T05:58:07.088Z,0.00
2023-03-08T05:59:07.065Z,0.00
2023-03-08T06:00:07.065Z,0.00
2023-03-08T06:01:07.031Z,0.00
2023-03-08T06:02:07.075Z,0.00
2023-03-08T06:03:07.108Z,0.00
2023-03-08T06:04:07.039Z,0.00
2023-03-08T06:05:07.012Z,0.00
2023-03-08T06:06:06.984Z,0.00
2023-03-08T06:07:06.329Z,0.00
2023-03-08T06:08:06.982Z,0.00
2023-03-08T06:09:06.988Z,5.62
2023-03-08T06:10:06.953Z,5.62
2023-03-08T06:11:06.924Z,5.62
2023-03-08T06:12:06.933Z,5.62
2023-03-08T06:13:06.252Z,5.62
2023-03-08T06:14:06.917Z,5.62
2023-03-08T06:15:06.906Z,5.62
2023-03-08T06:16:06.876Z,11.25
2023-03-08T06:17:06.888Z,11.25
2023-03-08T06:18:06.873Z,11.25
2023-03-08T06:19:06.868Z,11.25
2023-03-08T06:20:06.856Z,11.25
2023-03-08T06:21:06.836Z,11.25
2023-03-08T06:22:06.836Z,16.88
2023-03-08T06:23:06.822Z,16.88
2023-03-08T06:24:06.115Z,16.88
2023-03-08T06:25:06.795Z,16.88
2023-03-08T06:26:07.094Z,16.88
2023-03-08T06:27:06.784Z,16.88
2023-03-08T06:28:06.776Z,16.88
2023-03-08T06:29:06.756Z,16.88
2023-03-08T06:30:06.750Z,16.88
2023-03-08T06:31:06.099Z,16.88
2023-03-08T06:32:06.772Z,16.88
2023-03-08T06:33:06.095Z,16.88
2023-03-08T06:34:06.031Z,16.88
2023-03-08T06:35:06.701Z,16.88
2023-03-08T06:36:06.048Z,22.50
2023-03-08T06:37:06.003Z,22.50
2023-03-08T06:38:06.697Z,22.50
2023-03-08T06:39:06.663Z,22.50
2023-03-08T06:40:06.651Z,22.50
2023-03-08T06:41:06.623Z,28.12
2023-03-08T06:42:05.976Z,28.12
2023-03-08T06:43:05.994Z,28.12
2023-03-08T06:44:06.625Z,28.12
2023-03-08T06:45:06.606Z,33.75
2023-03-08T06:46:06.670Z,33.75
2023-03-08T06:47:06.594Z,33.75
2023-03-08T06:48:06.579Z,33.75
2023-03-08T06:49:06.568Z,33.75
2023-03-08T06:50:06.573Z,33.75
2023-03-08T06:51:06.527Z,33.75
2023-03-08T06:52:06.572Z,33.75
2023-03-08T06:53:06.521Z,39.38
2023-03-08T06:54:05.828Z,39.38
2023-03-08T06:55:05.829Z,45.00
2023-03-08T06:56:06.476Z,45.00
2023-03-08T06:57:06.878Z,50.62
2023-03-08T06:58:07.709Z,50.62
2023-03-08T06:59:06.480Z,50.62
2023-03-08T07:00:06.722Z,50.62
2023-03-08T07:01:05.886Z,50.62
2023-03-08T07:02:06.420Z,56.25
2023-03-08T07:03:06.663Z,61.88
2023-03-08T07:04:06.421Z,61.88
2023-03-08T07:05:05.707Z,61.88
2023-03-08T07:06:06.371Z,61.88
2023-03-08T07:07:05.706Z,61.88
2023-03-08T07:08:06.356Z,61.88
2023-03-08T07:09:06.343Z,61.88
2023-03-08T07:10:06.334Z,61.88
2023-03-08T07:11:06.317Z,61.88
2023-03-08T07:12:07.777Z,56.25
2023-03-08T07:13:06.312Z,61.88
2023-03-08T07:14:05.632Z,61.88
2023-03-08T07:15:06.277Z,61.88
2023-03-08T07:16:06.313Z,56.25
2023-03-08T07:17:06.263Z,56.25
2023-03-08T07:18:05.574Z,50.62
2023-03-08T07:19:05.579Z,56.25
2023-03-08T07:20:06.225Z,61.88
2023-03-08T07:21:06.218Z,61.88
2023-03-08T07:22:06.205Z,61.88
2023-03-08T07:23:06.203Z,61.88
2023-03-08T07:24:05.484Z,61.88
2023-03-08T07:25:06.176Z,61.88
2023-03-08T07:26:06.147Z,61.88
2023-03-08T07:27:06.155Z,61.88
2023-03-08T07:28:06.146Z,61.88
2023-03-08T07:29:06.134Z,67.50
2023-03-08T07:30:05.445Z,67.50
2023-03-08T07:31:05.444Z,67.50
2023-03-08T07:32:06.269Z,73.12
2023-03-08T07:33:06.132Z,67.50
2023-03-08T07:34:06.085Z,67.50
2023-03-08T07:35:06.072Z,61.88
2023-03-08T07:36:06.096Z,61.88
2023-03-08T07:37:06.055Z,61.88
2023-03-08T07:38:06.046Z,67.50
2023-03-08T07:39:06.029Z,67.50
2023-03-08T07:40:06.017Z,61.88
2023-03-08T07:41:05.994Z,67.50
2023-03-08T07:42:05.317Z,67.50
2023-03-08T07:43:05.319Z,73.12
2023-03-08T07:44:05.985Z,78.75
2023-03-08T07:45:05.969Z,90.00
2023-03-08T07:46:05.953Z,90.00
2023-03-08T07:47:05.949Z,95.62
2023-03-08T07:48:05.267Z,101.25
2023-03-08T07:49:05.922Z,95.62
2023-03-08T07:50:05.914Z,95.62
2023-03-08T07:51:05.892Z,90.00
2023-03-08T07:52:05.897Z,84.38
2023-03-08T07:53:05.882Z,73.12
2023-03-08T07:54:07.122Z,78.75
2023-03-08T07:55:05.235Z,78.75
2023-03-08T07:56:05.833Z,78.75
2023-03-08T07:57:05.842Z,84.38
2023-03-08T07:58:05.840Z,84.38
2023-03-08T07:59:05.134Z,84.38
2023-03-08T08:00:05.815Z,90.00
2023-03-08T08:01:05.792Z,95.62
2023-03-08T08:02:05.791Z,106.88
2023-03-08T08:03:06.063Z,112.50
2023-03-08T08:04:05.794Z,118.12
2023-03-08T08:05:05.201Z,118.12
2023-03-08T08:06:05.738Z,106.88
2023-03-08T08:07:05.735Z,95.62
2023-03-08T08:08:05.737Z,95.62
2023-03-08T08:09:05.716Z,101.25
2023-03-08T08:10:05.709Z,101.25
2023-03-08T08:11:05.675Z,95.62
2023-03-08T08:12:05.053Z,90.00
2023-03-08T08:13:05.673Z,90.00
2023-03-08T08:14:05.665Z,95.62
2023-03-08T08:15:05.658Z,95.62
2023-03-08T08:16:05.688Z,90.00
2023-03-08T08:17:05.616Z,90.00
2023-03-08T08:18:05.613Z,95.62
2023-03-08T08:19:05.613Z,95.62
2023-03-08T08:20:05.596Z,106.88
2023-03-08T08:21:05.585Z,112.50
2023-03-08T08:22:05.562Z,123.75
2023-03-08T08:23:04.874Z,129.38
2023-03-08T08:24:04.887Z,135.00
2023-03-08T08:25:05.536Z,135.00
2023-03-08T08:26:05.541Z,135.00
2023-03-08T08:27:04.853Z,135.00
2023-03-08T08:28:04.818Z,135.00
2023-03-08T08:29:04.836Z,146.25
2023-03-08T08:30:05.505Z,151.88
2023-03-08T08:31:05.501Z,163.12
2023-03-08T08:32:05.526Z,157.50
2023-03-08T08:33:05.454Z,151.88
2023-03-08T08:34:04.756Z,140.62
2023-03-08T08:35:04.748Z,146.25
2023-03-08T08:36:05.461Z,146.25
2023-03-08T08:37:05.401Z,146.25
2023-03-08T08:38:06.687Z,146.25
2023-03-08T08:39:04.725Z,140.62
2023-03-08T08:40:04.714Z,135.00
2023-03-08T08:41:05.370Z,129.38
2023-03-08T08:42:04.695Z,135.00
2023-03-08T08:43:05.345Z,135.00
2023-03-08T08:44:05.340Z,146.25
2023-03-08T08:45:05.325Z,157.50
2023-03-08T08:46:04.705Z,180.00
2023-03-08T08:47:05.286Z,180.00
2023-03-08T08:48:05.294Z,180.00
2023-03-08T08:49:04.586Z,174.38
2023-03-08T08:50:05.276Z,174.38
2023-03-08T08:51:05.274Z,180.00
2023-03-08T08:52:04.598Z,191.25
2023-03-08T08:53:05.267Z,196.88
2023-03-08T08:54:05.266Z,208.12
2023-03-08T08:55:05.216Z,213.75
2023-03-08T08:56:08.395Z,213.75
2023-03-08T08:57:05.526Z,219.38
2023-03-08T08:58:05.229Z,225.00
2023-03-08T08:59:05.184Z,230.62
2023-03-08T09:00:05.169Z,253.12
2023-03-08T09:01:04.484Z,264.38
2023-03-08T09:02:05.159Z,258.75
2023-03-08T09:03:05.133Z,253.12
2023-03-08T09:04:05.190Z,264.38
2023-03-08T09:05:05.226Z,264.38
2023-03-08T09:06:05.117Z,253.12
2023-03-08T09:07:05.076Z,258.75
2023-03-08T09:08:06.338Z,253.12
2023-03-08T09:09:04.406Z,247.50
2023-03-08T09:10:04.407Z,247.50
2023-03-08T09:11:05.048Z,253.12
2023-03-08T09:12:04.398Z,275.62
2023-03-08T09:13:05.070Z,292.50
2023-03-08T09:14:04.337Z,281.25
2023-03-08T09:15:05.017Z,258.75
2023-03-08T09:16:05.039Z,303.75
2023-03-08T09:17:04.327Z,258.75
2023-03-08T09:18:04.311Z,253.12
2023-03-08T09:19:04.970Z,247.50
2023-03-08T09:20:04.962Z,241.88
2023-03-08T09:21:04.967Z,241.88
2023-03-08T09:22:04.282Z,258.75
2023-03-08T09:23:04.942Z,258.75
2023-03-08T09:24:04.230Z,270.00
2023-03-08T09:25:04.911Z,264.38
2023-03-08T09:26:04.902Z,264.38
2023-03-08T09:27:04.237Z,247.50
2023-03-08T09:28:04.204Z,236.25
2023-03-08T09:29:04.930Z,241.88
2023-03-08T09:30:04.854Z,219.38
2023-03-08T09:31:04.849Z,185.62
2023-03-08T09:32:04.926Z,180.00
2023-03-08T09:33:04.832Z,180.00
2023-03-08T09:34:04.854Z,157.50
2023-03-08T09:35:04.798Z,168.75
2023-03-08T09:36:04.791Z,174.38
2023-03-08T09:37:04.775Z,185.62
2023-03-08T09:38:04.115Z,208.12
2023-03-08T09:39:04.097Z,213.75
2023-03-08T09:40:04.750Z,213.75
2023-03-08T09:41:04.083Z,213.75
2023-03-08T09:42:04.728Z,185.62
2023-03-08T09:43:04.727Z,174.38
2023-03-08T09:44:04.701Z,151.88
2023-03-08T09:45:05.851Z,163.12
2023-03-08T09:46:04.717Z,157.50
2023-03-08T09:47:04.652Z,180.00
2023-03-08T09:48:05.043Z,180.00
2023-03-08T09:49:04.005Z,174.38
2023-03-08T09:50:03.963Z,191.25
2023-03-08T09:51:03.951Z,191.25
2023-03-08T09:52:03.963Z,185.62
2023-03-08T09:53:03.938Z,191.25
2023-03-08T09:54:03.915Z,180.00
2023-03-08T09:55:04.668Z,168.75
2023-03-08T09:56:04.597Z,163.12
2023-03-08T09:57:04.550Z,157.50
2023-03-08T09:58:04.551Z,185.62
2023-03-08T09:59:03.970Z,163.12
2023-03-08T10:00:03.848Z,185.62
2023-03-08T10:01:04.588Z,180.00
2023-03-08T10:02:03.821Z,191.25
2023-03-08T10:03:04.498Z,185.62
2023-03-08T10:04:04.600Z,185.62
2023-03-08T10:05:13.303Z,174.38
2023-03-08T10:06:05.469Z,157.50
2023-03-08T10:07:03.769Z,151.88
2023-03-08T10:08:04.427Z,157.50
2023-03-08T10:09:04.440Z,163.12
2023-03-08T10:10:04.419Z,185.62
2023-03-08T10:11:04.416Z,202.50
2023-03-08T10:12:05.716Z,208.12
2023-03-08T10:13:04.376Z,196.88
2023-03-08T10:14:03.682Z,196.88
2023-03-08T10:15:03.698Z,185.62
2023-03-08T10:16:04.374Z,168.75
2023-03-08T10:17:04.383Z,185.62
2023-03-08T10:18:04.326Z,185.62
2023-03-08T10:19:04.335Z,202.50
2023-03-08T10:20:04.316Z,202.50
2023-03-08T10:21:04.317Z,202.50
2023-03-08T10:22:04.298Z,202.50
2023-03-08T10:23:03.622Z,213.75
2023-03-08T10:24:04.280Z,219.38
2023-03-08T10:25:03.569Z,208.12
2023-03-08T10:26:04.250Z,185.62
2023-03-08T10:27:04.915Z,174.38
2023-03-08T10:28:04.211Z,185.62
2023-03-08T10:29:04.220Z,202.50
2023-03-08T10:30:04.209Z,208.12
2023-03-08T10:31:03.539Z,191.25
2023-03-08T10:32:03.517Z,202.50
2023-03-08T10:33:04.162Z,230.62
2023-03-08T10:34:04.170Z,270.00
2023-03-08T10:35:03.536Z,275.62
2023-03-08T10:36:04.228Z,292.50
2023-03-08T10:37:03.448Z,292.50
2023-03-08T10:38:03.457Z,326.25
2023-03-08T10:39:05.108Z,348.75
2023-03-08T10:40:04.111Z,365.62
2023-03-08T10:41:04.093Z,382.50
2023-03-08T10:42:04.095Z,376.88
2023-03-08T10:43:03.396Z,376.88
2023-03-08T10:44:04.108Z,348.75
2023-03-08T10:45:04.069Z,343.12
2023-03-08T10:46:04.102Z,382.50
2023-03-08T10:47:03.341Z,399.38
2023-03-08T10:48:04.039Z,393.75
2023-03-08T10:49:03.317Z,376.88
2023-03-08T10:50:04.011Z,371.25
2023-03-08T10:51:03.994Z,360.00
2023-03-08T10:52:03.991Z,348.75
2023-03-08T10:53:03.310Z,320.62
2023-03-08T10:54:03.266Z,309.38
2023-03-08T10:55:03.270Z,292.50
2023-03-08T10:56:03.945Z,343.12
2023-03-08T10:57:03.936Z,315.00
2023-03-08T10:58:03.248Z,292.50
2023-03-08T10:59:03.928Z,281.25
2023-03-08T11:00:03.891Z,315.00
2023-03-08T11:01:03.880Z,360.00
2023-03-08T11:02:03.877Z,393.75
2023-03-08T11:03:03.841Z,427.50
2023-03-08T11:04:03.851Z,354.38
2023-03-08T11:05:03.861Z,365.62
2023-03-08T11:06:03.212Z,303.75
2023-03-08T11:07:03.130Z,270.00
2023-03-08T11:08:03.141Z,241.88
2023-03-08T11:09:03.801Z,258.75
2023-03-08T11:10:03.783Z,270.00
2023-03-08T11:11:03.817Z,303.75
2023-03-08T11:12:03.800Z,275.62
2023-03-08T11:13:03.741Z,253.12
2023-03-08T11:14:03.745Z,208.12
2023-03-08T11:15:03.047Z,202.50
2023-03-08T11:16:03.173Z,219.38
2023-03-08T11:17:03.725Z,225.00
2023-03-08T11:18:03.995Z,236.25
2023-03-08T11:19:03.765Z,230.62
2023-03-08T11:20:02.983Z,236.25
2023-03-08T11:21:03.670Z,247.50
2023-03-08T11:22:03.693Z,258.75
2023-03-08T11:23:02.978Z,270.00
2023-03-08T11:24:03.666Z,264.38
2023-03-08T11:25:03.622Z,241.88
2023-03-08T11:26:03.614Z,230.62
2023-03-08T11:27:03.685Z,230.62
2023-03-08T11:28:02.946Z,236.25
2023-03-08T11:29:03.703Z,275.62
2023-03-08T11:30:03.575Z,303.75
2023-03-08T11:31:03.584Z,315.00
2023-03-08T11:32:03.553Z,315.00
2023-03-08T11:33:03.127Z,309.38
2023-03-08T11:34:02.918Z,326.25
2023-03-08T11:35:03.535Z,320.62
2023-03-08T11:36:02.832Z,298.12
2023-03-08T11:37:02.828Z,270.00
2023-03-08T11:38:03.497Z,275.62
2023-03-08T11:39:02.814Z,286.88
2023-03-08T11:40:03.467Z,315.00
2023-03-08T11:41:03.456Z,326.25
2023-03-08T11:42:02.756Z,320.62
2023-03-08T11:43:02.753Z,320.62
2023-03-08T11:44:03.398Z,320.62
2023-03-08T11:45:03.411Z,326.25
2023-03-08T11:46:03.408Z,326.25
2023-03-08T11:47:03.408Z,309.38
2023-03-08T11:48:02.705Z,281.25
2023-03-08T11:49:02.725Z,258.75
2023-03-08T11:50:03.349Z,241.88
2023-03-08T11:51:03.362Z,241.88
2023-03-08T11:52:03.340Z,202.50
2023-03-08T11:53:02.639Z,196.88
2023-03-08T11:54:02.657Z,219.38
2023-03-08T11:55:03.349Z,247.50
2023-03-08T11:56:03.297Z,241.88
2023-03-08T11:57:03.284Z,225.00
2023-03-08T11:58:03.272Z,219.38
2023-03-08T11:59:03.239Z,219.38
2023-03-08T12:00:03.250Z,230.62
2023-03-08T12:01:02.548Z,236.25
2023-03-08T12:02:03.224Z,230.62
2023-03-08T12:03:03.241Z,241.88
2023-03-08T12:04:04.270Z,264.38
2023-03-08T12:05:02.661Z,264.38
2023-03-08T12:06:03.304Z,275.62
2023-03-08T12:07:02.626Z,286.88
2023-03-08T12:08:03.144Z,292.50
2023-03-08T12:09:03.155Z,298.12
2023-03-08T12:10:03.187Z,309.38
2023-03-08T12:11:02.486Z,320.62
2023-03-08T12:12:03.621Z,320.62
2023-03-08T12:13:03.107Z,326.25
2023-03-08T12:14:03.079Z,320.62
2023-03-08T12:15:03.127Z,303.75
2023-03-08T12:16:03.120Z,281.25
2023-03-08T12:17:02.482Z,253.12
2023-03-08T12:18:04.160Z,258.75
2023-03-08T12:19:03.025Z,241.88
2023-03-08T12:20:03.026Z,236.25
2023-03-08T12:21:03.022Z,225.00
2023-03-08T12:22:02.312Z,208.12
2023-03-08T12:23:02.380Z,208.12
2023-03-08T12:24:03.973Z,219.38
2023-03-08T12:25:02.341Z,213.75
2023-03-08T12:26:02.965Z,213.75
2023-03-08T12:27:02.956Z,202.50
2023-03-08T12:28:02.993Z,196.88
2023-03-08T12:29:02.919Z,196.88
2023-03-08T12:30:02.932Z,191.25
2023-03-08T12:31:02.937Z,185.62
2023-03-08T12:32:02.936Z,180.00
2023-03-08T12:33:02.389Z,208.12
2023-03-08T12:34:02.864Z,202.50
2023-03-08T12:35:02.216Z,213.75
2023-03-08T12:36:02.969Z,213.75
2023-03-08T12:37:02.923Z,219.38
2023-03-08T12:38:02.898Z,213.75
2023-03-08T12:39:02.226Z,213.75
2023-03-08T12:40:02.144Z,202.50
2023-03-08T12:41:02.815Z,191.25
2023-03-08T12:42:02.826Z,185.62
2023-03-08T12:43:02.788Z,185.62
2023-03-08T12:44:02.758Z,185.62
2023-03-08T12:45:02.108Z,185.62
2023-03-08T12:46:02.860Z,185.62
2023-03-08T12:47:04.039Z,185.62
2023-03-08T12:48:02.834Z,191.25
2023-03-08T12:49:02.121Z,185.62
2023-03-08T12:50:02.718Z,191.25
2023-03-08T12:51:02.078Z,185.62
2023-03-08T12:52:02.728Z,180.00
2023-03-08T12:53:02.012Z,191.25
2023-03-08T12:54:02.039Z,202.50
2023-03-08T12:55:02.668Z,191.25